Time;durP1;ratioP1;P1;durP2;ratioP2;P2;SDS_P1;SDS_P2;PMS_P1;PMS_P2;Temp;Humidity;BMP_temperature;BMP_pressure;BME280_temperature;BME280_humidity;BME280_pressure;Samples;Min_cycle;Max_cycle;Signal;HPM_P1;HPM_P2
2022/06/10 00:01:59;;;;;;;125.45;111.72;;;;;;;;;;5038544;28;20703;-52
2022/06/10 00:04:26;;;;;;;191.98;131.25;;;;;;;;;;5035602;28;20211;-52
2022/06/10 00:06:52;;;;;;;180.00;128.63;;;;;;;;;;5041241;28;20230;-53
2022/06/10 00:09:17;;;;;;;221.85;145.20;;;;;;;;;;5030556;28;20216;-52
2022/06/10 00:11:43;;;;;;;180.18;130.43;;;;;;;;;;5035523;28;20203;-52
2022/06/10 00:14:09;;;;;;;157.90;123.50;;;;;;;;;;5039864;28;20181;-53
2022/06/10 00:16:37;;;;;;;204.27;138.25;;;;;;;;;;5034965;28;20211;-52
2022/06/10 00:19:03;;;;;;;195.40;137.23;;;;;;;;;;5035062;28;20812;-52
2022/06/10 00:21:29;;;;;;;222.15;145.02;;;;;;;;;;5033064;28;20212;-53
2022/06/10 00:23:55;;;;;;;176.52;128.63;;;;;;;;;;5036993;28;20318;-53
2022/06/10 00:26:21;;;;;;;206.43;142.98;;;;;;;;;;5032951;28;20203;-52
2022/06/10 00:28:48;;;;;;;183.82;130.93;;;;;;;;;;5015559;28;20584;-53
2022/06/10 00:31:15;;;;;;;196.48;136.43;;;;;;;;;;5039916;28;20231;-52
2022/06/10 00:33:41;;;;;;;173.35;125.43;;;;;;;;;;5043366;28;20245;-53
2022/06/10 00:36:07;;;;;;;130.93;114.28;;;;;;;;;;5038106;28;20211;-52
2022/06/10 00:38:33;;;;;;;169.95;124.60;;;;;;;;;;5019257;28;20313;-52
2022/06/10 00:41:00;;;;;;;171.98;123.88;;;;;;;;;;5037761;28;20274;-53
2022/06/10 00:43:27;;;;;;;170.32;124.07;;;;;;;;;;5035399;28;20664;-52
2022/06/10 00:45:56;;;;;;;185.30;129.18;;;;;;;;;;5041915;28;20224;-53
2022/06/10 00:48:27;;;;;;;147.75;118.68;;;;;;;;;;5040566;28;20226;-52
2022/06/10 00:50:54;;;;;;;163.25;121.00;;;;;;;;;;5037348;28;20202;-53
2022/06/10 00:53:21;;;;;;;153.90;118.10;;;;;;;;;;5035897;28;20824;-52
2022/06/10 00:55:50;;;;;;;156.60;116.78;;;;;;;;;;5040793;28;20698;-52
2022/06/10 00:58:22;;;;;;;193.68;130.95;;;;;;;;;;5033289;28;20215;-53
2022/06/10 01:00:48;;;;;;;170.20;122.07;;;;;;;;;;5035119;28;20306;-52
2022/06/10 01:03:14;;;;;;;158.65;120.05;;;;;;;;;;5036390;28;20216;-52
2022/06/10 01:05:40;;;;;;;132.00;112.93;;;;;;;;;;5034750;28;20219;-52
2022/06/10 01:08:11;;;;;;;167.80;121.25;;;;;;;;;;5038525;28;20214;-53
2022/06/10 01:11:00;;;;;;;149.40;115.68;;;;;;;;;;5034492;28;20219;-52
2022/06/10 01:13:35;;;;;;;203.98;133.15;;;;;;;;;;5042905;28;20265;-52
2022/06/10 01:16:08;;;;;;;143.82;110.32;;;;;;;;;;5044260;28;20218;-52
2022/06/10 01:18:54;;;;;;;142.35;108.90;;;;;;;;;;5039883;28;20298;-52
2022/06/10 01:21:36;;;;;;;151.23;109.55;;;;;;;;;;5042430;28;20242;-52
2022/06/10 01:24:20;;;;;;;147.85;104.13;;;;;;;;;;5046724;28;20211;-53
2022/06/10 01:30:03;;;;;;;160.55;109.18;;;;;;;;;;5037138;28;20227;-52
2022/06/10 01:32:47;;;;;;;129.77;101.47;;;;;;;;;;5039320;28;20179;-53
2022/06/10 01:35:26;;;;;;;170.35;111.18;;;;;;;;;;5041975;28;20209;-53
2022/06/10 01:38:08;;;;;;;126.15;99.28;;;;;;;;;;5049102;28;20869;-52
2022/06/10 01:40:34;;;;;;;158.75;110.35;;;;;;;;;;5041731;28;20702;-52
2022/06/10 01:43:00;;;;;;;152.18;111.55;;;;;;;;;;5040543;28;20281;-53
2022/06/10 01:45:31;;;;;;;144.13;106.05;;;;;;;;;;5042495;28;20215;-52
2022/06/10 01:48:03;;;;;;;141.95;103.38;;;;;;;;;;5039461;28;20692;-52
2022/06/10 01:50:39;;;;;;;148.38;105.40;;;;;;;;;;5023703;28;20207;-53
2022/06/10 01:53:10;;;;;;;204.10;120.88;;;;;;;;;;5039418;28;20261;-52
2022/06/10 01:55:39;;;;;;;122.85;95.90;;;;;;;;;;5041817;28;20211;-53
2022/06/10 01:58:08;;;;;;;126.30;97.68;;;;;;;;;;5036788;28;20269;-52
2022/06/10 02:00:36;;;;;;;142.90;102.85;;;;;;;;;;5036123;28;20224;-52
2022/06/10 02:03:07;;;;;;;151.68;106.93;;;;;;;;;;5040766;28;20216;-52
2022/06/10 02:05:37;;;;;;;161.60;109.28;;;;;;;;;;5037243;28;20187;-52
2022/06/10 02:08:21;;;;;;;119.60;95.85;;;;;;;;;;5044223;28;20306;-51
2022/06/10 02:10:46;;;;;;;124.25;95.88;;;;;;;;;;5042624;28;20261;-52
2022/06/10 02:13:15;;;;;;;169.93;108.70;;;;;;;;;;5029851;28;20208;-53
2022/06/10 02:15:43;;;;;;;222.18;126.03;;;;;;;;;;5023888;28;23042;-53
2022/06/10 02:18:13;;;;;;;212.45;122.80;;;;;;;;;;5024754;28;20230;-53
2022/06/10 02:20:41;;;;;;;218.98;121.53;;;;;;;;;;5024845;28;20183;-53
2022/06/10 02:23:08;;;;;;;195.57;118.68;;;;;;;;;;5030460;28;20587;-53
2022/06/10 02:25:40;;;;;;;180.38;109.97;;;;;;;;;;5033381;28;20543;-53
2022/06/10 02:28:09;;;;;;;166.73;104.97;;;;;;;;;;5027963;28;20226;-53
2022/06/10 02:30:42;;;;;;;153.68;101.38;;;;;;;;;;5032810;28;20228;-53
2022/06/10 02:33:08;;;;;;;210.48;115.65;;;;;;;;;;5019220;28;20355;-53
2022/06/10 02:35:37;;;;;;;207.20;117.20;;;;;;;;;;5023977;28;20234;-53
2022/06/10 02:38:15;;;;;;;148.80;103.28;;;;;;;;;;5032899;28;20585;-53
2022/06/10 02:40:52;;;;;;;145.10;97.13;;;;;;;;;;5026681;28;20583;-53
2022/06/10 02:43:27;;;;;;;138.63;99.38;;;;;;;;;;5040313;28;20460;-50
2022/06/10 02:45:57;;;;;;;109.65;87.13;;;;;;;;;;5043582;28;20211;-52
2022/06/10 02:48:23;;;;;;;151.70;99.85;;;;;;;;;;5043401;28;20285;-52
2022/06/10 02:50:49;;;;;;;105.63;87.03;;;;;;;;;;5044769;28;20250;-52
2022/06/10 02:53:15;;;;;;;123.10;92.82;;;;;;;;;;5044404;28;20176;-52
2022/06/10 02:55:41;;;;;;;115.65;89.75;;;;;;;;;;5024441;28;20219;-52
2022/06/10 03:03:37;;;;;;;117.55;84.75;;;;;;;;;;5040734;28;20223;-51
2022/06/10 03:06:09;;;;;;;125.78;89.97;;;;;;;;;;5040189;28;20623;-51
2022/06/10 03:08:37;;;;;;;98.10;82.32;;;;;;;;;;5041296;28;20207;-52
2022/06/10 03:11:23;;;;;;;101.45;82.35;;;;;;;;;;5025360;28;20699;-51
2022/06/10 03:14:08;;;;;;;99.05;78.00;;;;;;;;;;5041049;28;20572;-51
2022/06/10 03:16:44;;;;;;;118.25;87.65;;;;;;;;;;5045563;28;20207;-52
2022/06/10 03:19:30;;;;;;;127.13;88.05;;;;;;;;;;5040191;28;20218;-52
2022/06/10 03:22:14;;;;;;;115.63;84.43;;;;;;;;;;5044704;28;20203;-51
2022/06/10 03:24:46;;;;;;;91.82;75.72;;;;;;;;;;5048682;28;20262;-52
2022/06/10 03:27:15;;;;;;;98.25;76.55;;;;;;;;;;5043469;28;20257;-52
2022/06/10 03:29:50;;;;;;;91.35;79.18;;;;;;;;;;5029773;28;20195;-52
2022/06/10 03:32:19;;;;;;;126.50;89.18;;;;;;;;;;5042041;28;20179;-52
2022/06/10 03:34:50;;;;;;;132.82;89.03;;;;;;;;;;5045894;28;20239;-52
2022/06/10 03:37:17;;;;;;;113.45;83.30;;;;;;;;;;5036740;28;20212;-52
2022/06/10 03:39:49;;;;;;;108.60;86.03;;;;;;;;;;5041112;28;20226;-52
2022/06/10 03:42:16;;;;;;;123.57;87.03;;;;;;;;;;5043832;28;20242;-53
2022/06/10 03:44:43;;;;;;;116.55;87.93;;;;;;;;;;5044752;28;20214;-52
2022/06/10 03:47:13;;;;;;;109.40;84.90;;;;;;;;;;5043361;28;20168;-51
2022/06/10 03:49:50;;;;;;;117.70;88.63;;;;;;;;;;5040216;28;20581;-52
2022/06/10 03:52:20;;;;;;;118.55;84.78;;;;;;;;;;5043615;28;20263;-51
2022/06/10 03:54:46;;;;;;;128.00;88.50;;;;;;;;;;5044523;28;20207;-52
2022/06/10 03:57:13;;;;;;;123.55;90.10;;;;;;;;;;5042122;28;20249;-51
2022/06/10 03:59:39;;;;;;;84.53;76.68;;;;;;;;;;5040430;28;20325;-52
2022/06/10 04:02:05;;;;;;;106.82;85.93;;;;;;;;;;5041776;28;20199;-52
2022/06/10 04:04:31;;;;;;;118.68;86.22;;;;;;;;;;5047595;28;20218;-52
2022/06/10 04:06:57;;;;;;;108.43;82.15;;;;;;;;;;5041961;28;20230;-52
2022/06/10 04:09:23;;;;;;;107.97;81.30;;;;;;;;;;5049394;28;20239;-51
2022/06/10 04:11:49;;;;;;;108.13;80.63;;;;;;;;;;5045670;28;20552;-52
2022/06/10 04:14:15;;;;;;;81.50;72.82;;;;;;;;;;5039438;28;20176;-52
2022/06/10 04:16:41;;;;;;;111.97;82.70;;;;;;;;;;5044190;28;20223;-52
2022/06/10 04:19:07;;;;;;;99.05;74.65;;;;;;;;;;5042614;28;20211;-52
2022/06/10 04:21:32;;;;;;;95.35;71.70;;;;;;;;;;5042670;28;20671;-51
2022/06/10 04:23:58;;;;;;;84.40;73.43;;;;;;;;;;5047127;28;20675;-52
2022/06/10 04:26:24;;;;;;;101.13;75.15;;;;;;;;;;5026912;28;20223;-52
2022/06/10 04:28:50;;;;;;;130.15;86.30;;;;;;;;;;5043562;28;20473;-52
2022/06/10 04:31:16;;;;;;;125.22;84.97;;;;;;;;;;5041805;28;20227;-52
2022/06/10 04:33:42;;;;;;;102.10;78.93;;;;;;;;;;5044947;28;20917;-52
2022/06/10 04:36:09;;;;;;;119.40;89.20;;;;;;;;;;5040175;28;20285;-51
2022/06/10 04:38:35;;;;;;;85.75;77.38;;;;;;;;;;5044826;28;20517;-52
2022/06/10 04:41:05;;;;;;;112.57;89.15;;;;;;;;;;5044179;28;20181;-53
2022/06/10 04:43:31;;;;;;;110.55;88.28;;;;;;;;;;5045600;28;20302;-52
2022/06/10 04:45:57;;;;;;;116.97;86.68;;;;;;;;;;5042815;28;20247;-52
2022/06/10 04:48:24;;;;;;;111.55;88.22;;;;;;;;;;5047564;28;20264;-52
2022/06/10 04:50:50;;;;;;;96.53;79.50;;;;;;;;;;5045935;28;20230;-52
2022/06/10 04:53:16;;;;;;;129.23;97.75;;;;;;;;;;5044721;28;20636;-52
2022/06/10 04:55:42;;;;;;;95.55;85.43;;;;;;;;;;5044781;28;20222;-52
2022/06/10 04:58:08;;;;;;;105.03;83.38;;;;;;;;;;5049335;28;20207;-53
2022/06/10 05:00:37;;;;;;;114.70;89.80;;;;;;;;;;5054461;28;20222;-52
2022/06/10 05:03:03;;;;;;;133.57;95.65;;;;;;;;;;5036187;28;20306;-52
2022/06/10 05:05:29;;;;;;;109.97;89.00;;;;;;;;;;5050326;28;20176;-52
2022/06/10 05:07:56;;;;;;;131.73;95.47;;;;;;;;;;5046832;28;20220;-52
2022/06/10 05:10:22;;;;;;;149.65;95.35;;;;;;;;;;5043202;28;20209;-54
2022/06/10 05:12:50;;;;;;;175.48;110.57;;;;;;;;;;5029035;28;20220;-54
2022/06/10 05:15:19;;;;;;;211.07;113.85;;;;;;;;;;5031103;28;20254;-54
2022/06/10 05:17:46;;;;;;;179.88;111.15;;;;;;;;;;5018692;28;20224;-53
2022/06/10 05:20:15;;;;;;;191.18;111.00;;;;;;;;;;5032426;28;20230;-53
2022/06/10 05:22:41;;;;;;;138.20;94.45;;;;;;;;;;5036924;28;20309;-54
2022/06/10 05:25:07;;;;;;;151.90;98.15;;;;;;;;;;5035334;28;20212;-54
2022/06/10 05:27:33;;;;;;;138.00;94.07;;;;;;;;;;5034510;28;20655;-54
2022/06/10 05:29:59;;;;;;;117.03;91.50;;;;;;;;;;5033181;28;20223;-54
2022/06/10 05:32:24;;;;;;;132.18;91.68;;;;;;;;;;5033009;28;20230;-54
2022/06/10 05:34:51;;;;;;;376.98;132.32;;;;;;;;;;5030729;28;20227;-53
2022/06/10 05:37:19;;;;;;;130.13;82.65;;;;;;;;;;5028716;28;20212;-54
2022/06/10 05:39:45;;;;;;;133.07;89.00;;;;;;;;;;5037396;28;20216;-53
2022/06/10 05:42:11;;;;;;;187.57;108.45;;;;;;;;;;5025017;28;20258;-53
2022/06/10 05:44:40;;;;;;;212.55;109.15;;;;;;;;;;5026282;28;20241;-54
2022/06/10 05:47:07;;;;;;;267.98;127.95;;;;;;;;;;5026397;28;20212;-54
2022/06/10 05:49:33;;;;;;;246.77;122.50;;;;;;;;;;5002736;28;20510;-54
2022/06/10 05:51:59;;;;;;;95.40;74.55;;;;;;;;;;5024984;28;20234;-54
2022/06/10 05:54:25;;;;;;;152.40;87.78;;;;;;;;;;5033877;28;20212;-54
2022/06/10 05:56:51;;;;;;;117.95;83.28;;;;;;;;;;5043686;28;20187;-54
2022/06/10 05:59:18;;;;;;;167.63;97.18;;;;;;;;;;5024928;28;20254;-54
2022/06/10 06:01:44;;;;;;;142.50;96.05;;;;;;;;;;5036504;28;20204;-54
2022/06/10 06:04:10;;;;;;;293.52;122.80;;;;;;;;;;5017271;28;20220;-53
2022/06/10 06:06:36;;;;;;;209.27;117.32;;;;;;;;;;5022652;28;20753;-53
2022/06/10 06:09:03;;;;;;;153.90;102.57;;;;;;;;;;5002306;28;20211;-53
2022/06/10 06:11:29;;;;;;;552.80;209.63;;;;;;;;;;5008551;28;20222;-53
2022/06/10 06:13:55;;;;;;;394.90;150.63;;;;;;;;;;5023630;28;20216;-53
2022/06/10 06:16:21;;;;;;;150.32;86.70;;;;;;;;;;5025256;28;20672;-53
2022/06/10 06:18:48;;;;;;;212.77;125.13;;;;;;;;;;5021519;28;20212;-52
2022/06/10 06:21:14;;;;;;;103.22;87.72;;;;;;;;;;5026549;28;20215;-52
2022/06/10 06:23:41;;;;;;;128.52;94.95;;;;;;;;;;5026551;28;20175;-52
2022/06/10 06:26:07;;;;;;;170.63;111.95;;;;;;;;;;5030373;28;20212;-52
2022/06/10 06:28:33;;;;;;;122.07;93.50;;;;;;;;;;5027387;28;20901;-53
2022/06/10 06:30:59;;;;;;;123.85;92.88;;;;;;;;;;5021917;28;20227;-52
2022/06/10 06:33:25;;;;;;;135.05;92.90;;;;;;;;;;5029562;28;20219;-53
2022/06/10 06:35:52;;;;;;;219.27;122.05;;;;;;;;;;5024882;28;20548;-52
2022/06/10 06:38:18;;;;;;;193.65;121.63;;;;;;;;;;5021652;28;20219;-51
2022/06/10 06:40:44;;;;;;;127.93;99.63;;;;;;;;;;5037674;28;20453;-52
2022/06/10 06:43:11;;;;;;;204.05;125.13;;;;;;;;;;5022714;28;20495;-52
2022/06/10 06:45:37;;;;;;;183.77;121.57;;;;;;;;;;5016848;28;20220;-52
2022/06/10 06:48:04;;;;;;;175.57;118.13;;;;;;;;;;5018313;28;20663;-53
2022/06/10 06:50:31;;;;;;;148.93;114.40;;;;;;;;;;5030058;28;20200;-53
2022/06/10 06:52:57;;;;;;;126.30;102.82;;;;;;;;;;5028466;28;20270;-53
2022/06/10 06:55:23;;;;;;;195.55;117.13;;;;;;;;;;5027764;28;20207;-52
2022/06/10 06:57:49;;;;;;;223.85;124.32;;;;;;;;;;5032565;28;20791;-52
2022/06/10 07:00:16;;;;;;;215.20;121.70;;;;;;;;;;5025928;28;20593;-53
2022/06/10 07:02:42;;;;;;;119.85;101.03;;;;;;;;;;5026903;28;20192;-53
2022/06/10 07:05:09;;;;;;;170.23;114.28;;;;;;;;;;5030361;28;20736;-53
2022/06/10 07:07:35;;;;;;;116.20;92.22;;;;;;;;;;5031858;28;20636;-53
2022/06/10 07:10:01;;;;;;;143.50;107.57;;;;;;;;;;5035571;28;20240;-53
2022/06/10 07:12:27;;;;;;;151.57;109.82;;;;;;;;;;5034772;28;20225;-53
2022/06/10 07:14:53;;;;;;;178.68;118.95;;;;;;;;;;5031349;28;20645;-53
2022/06/10 07:17:19;;;;;;;170.75;111.05;;;;;;;;;;5036507;28;20259;-53
2022/06/10 07:19:48;;;;;;;127.57;102.70;;;;;;;;;;5041085;28;20290;-53
2022/06/10 07:22:15;;;;;;;122.28;102.18;;;;;;;;;;5042323;28;20702;-53
2022/06/10 07:24:41;;;;;;;119.25;98.93;;;;;;;;;;5042062;28;20583;-53
2022/06/10 07:27:07;;;;;;;121.80;101.05;;;;;;;;;;5039397;28;20297;-53
2022/06/10 07:29:33;;;;;;;146.02;107.35;;;;;;;;;;5036894;28;20200;-53
2022/06/10 07:31:58;;;;;;;165.43;117.15;;;;;;;;;;5016651;28;20318;-52
2022/06/10 07:34:24;;;;;;;107.97;96.88;;;;;;;;;;5036239;28;20204;-52
2022/06/10 07:36:50;;;;;;;124.18;104.32;;;;;;;;;;5033957;28;20350;-52
2022/06/10 07:39:16;;;;;;;112.32;99.70;;;;;;;;;;5033268;28;20289;-53
2022/06/10 07:42:00;;;;;;;124.18;105.72;;;;;;;;;;5033770;28;20659;-53
2022/06/10 07:44:26;;;;;;;133.60;104.32;;;;;;;;;;5030887;28;20172;-53
2022/06/10 07:46:54;;;;;;;111.47;100.00;;;;;;;;;;5028699;28;20231;-53
2022/06/10 07:49:20;;;;;;;127.60;101.80;;;;;;;;;;5033311;28;20216;-53
2022/06/10 07:51:46;;;;;;;138.15;102.28;;;;;;;;;;5035271;28;20255;-53
2022/06/10 07:54:12;;;;;;;132.93;104.80;;;;;;;;;;5039077;28;20219;-52
2022/06/10 07:56:39;;;;;;;216.02;131.50;;;;;;;;;;5036413;28;20681;-52
2022/06/10 07:59:05;;;;;;;157.98;111.85;;;;;;;;;;5034572;28;20199;-53
2022/06/10 08:01:31;;;;;;;108.30;97.50;;;;;;;;;;5032912;28;20840;-53
2022/06/10 08:03:57;;;;;;;126.40;109.70;;;;;;;;;;5030428;28;20335;-53
2022/06/10 08:06:25;;;;;;;109.28;98.00;;;;;;;;;;5035353;28;20299;-52
2022/06/10 08:08:50;;;;;;;138.88;108.78;;;;;;;;;;5030865;28;20269;-52
2022/06/10 08:11:17;;;;;;;175.23;119.40;;;;;;;;;;5035184;28;20619;-52
2022/06/10 08:13:43;;;;;;;146.52;110.38;;;;;;;;;;5034252;28;20219;-53
2022/06/10 08:16:09;;;;;;;102.90;92.75;;;;;;;;;;5032548;28;20219;-53
2022/06/10 08:18:37;;;;;;;131.73;103.82;;;;;;;;;;5034993;28;20220;-53
2022/06/10 08:23:48;;;;;;;110.47;98.65;;;;;;;;;;5033378;28;20194;-53
2022/06/10 08:26:14;;;;;;;133.57;106.88;;;;;;;;;;5032376;28;20164;-53
2022/06/10 08:28:41;;;;;;;163.07;115.78;;;;;;;;;;5033289;28;20215;-53
2022/06/10 08:31:07;;;;;;;107.25;96.43;;;;;;;;;;5026742;28;20221;-53
2022/06/10 08:33:33;;;;;;;180.27;124.82;;;;;;;;;;5035238;28;20335;-53
2022/06/10 08:36:00;;;;;;;139.57;111.18;;;;;;;;;;5032246;28;20215;-53
2022/06/10 08:38:26;;;;;;;186.43;129.18;;;;;;;;;;5034044;28;20286;-53
2022/06/10 08:40:58;;;;;;;143.02;116.95;;;;;;;;;;5028534;28;20212;-53
2022/06/10 08:43:39;;;;;;;148.20;117.53;;;;;;;;;;5033914;28;20595;-53
2022/06/10 08:46:18;;;;;;;184.00;131.30;;;;;;;;;;5030219;28;20243;-53
2022/06/10 08:49:06;;;;;;;150.13;122.07;;;;;;;;;;5031477;28;20270;-53
2022/06/10 08:51:53;;;;;;;147.18;119.25;;;;;;;;;;5040102;28;20242;-53
2022/06/10 08:54:36;;;;;;;134.32;111.97;;;;;;;;;;5027206;28;20219;-53
2022/06/10 08:57:06;;;;;;;146.82;117.80;;;;;;;;;;5030771;28;20223;-53
2022/06/10 08:59:40;;;;;;;226.05;141.73;;;;;;;;;;5028714;28;20261;-53
2022/06/10 09:02:09;;;;;;;158.75;125.10;;;;;;;;;;5039631;28;20236;-53
2022/06/10 09:04:38;;;;;;;114.18;104.20;;;;;;;;;;5036307;28;20285;-53
2022/06/10 09:07:09;;;;;;;166.07;123.05;;;;;;;;;;5027267;28;20212;-53
2022/06/10 09:09:35;;;;;;;218.52;139.65;;;;;;;;;;5030097;28;20825;-53
2022/06/10 09:12:22;;;;;;;142.35;120.47;;;;;;;;;;5029081;28;20283;-53
2022/06/10 09:14:50;;;;;;;180.27;134.40;;;;;;;;;;5035266;28;20241;-53
2022/06/10 09:17:29;;;;;;;175.23;131.20;;;;;;;;;;5031285;28;20195;-53
2022/06/10 09:20:15;;;;;;;155.30;123.30;;;;;;;;;;5035570;28;20231;-52
2022/06/10 09:23:08;;;;;;;122.13;111.28;;;;;;;;;;5035090;28;20269;-53
2022/06/10 09:25:40;;;;;;;152.90;127.10;;;;;;;;;;5026571;28;20230;-53
2022/06/10 09:28:06;;;;;;;188.18;144.30;;;;;;;;;;5032983;28;20219;-53
2022/06/10 09:30:40;;;;;;;179.68;142.73;;;;;;;;;;5029581;28;20275;-53
2022/06/10 09:33:15;;;;;;;166.35;133.25;;;;;;;;;;5033419;28;20687;-53
2022/06/10 09:35:45;;;;;;;206.48;155.05;;;;;;;;;;5036507;28;20184;-53
2022/06/10 09:38:30;;;;;;;197.50;148.48;;;;;;;;;;5045043;28;20272;-53
2022/06/10 09:41:06;;;;;;;170.95;140.32;;;;;;;;;;5016854;28;20255;-53
2022/06/10 09:43:42;;;;;;;163.63;136.35;;;;;;;;;;5036008;28;20270;-53
2022/06/10 09:46:32;;;;;;;179.75;138.02;;;;;;;;;;5026858;28;20220;-53
2022/06/10 09:49:20;;;;;;;206.95;154.15;;;;;;;;;;5023672;28;20211;-53
2022/06/10 09:51:55;;;;;;;148.57;132.32;;;;;;;;;;5039155;28;20224;-53
2022/06/10 09:54:33;;;;;;;182.80;144.27;;;;;;;;;;5033500;28;20210;-53
2022/06/10 09:57:17;;;;;;;190.82;146.38;;;;;;;;;;5038132;28;20211;-53
2022/06/10 09:59:43;;;;;;;178.82;143.32;;;;;;;;;;5035615;28;20188;-53
2022/06/10 10:02:12;;;;;;;156.65;134.95;;;;;;;;;;5036930;28;20172;-52
2022/06/10 10:04:38;;;;;;;179.82;143.75;;;;;;;;;;5036057;28;20867;-53
2022/06/10 10:07:14;;;;;;;210.88;154.38;;;;;;;;;;5033461;28;20227;-53
2022/06/10 10:09:49;;;;;;;149.23;131.90;;;;;;;;;;5032349;28;20217;-53
2022/06/10 10:12:24;;;;;;;152.20;132.90;;;;;;;;;;5035041;28;20280;-54
2022/06/10 10:14:50;;;;;;;223.18;159.32;;;;;;;;;;5038601;28;20219;-52
2022/06/10 10:17:16;;;;;;;158.52;139.05;;;;;;;;;;5040081;28;20208;-52
2022/06/10 10:19:47;;;;;;;271.33;180.63;;;;;;;;;;5036033;28;20840;-52
2022/06/10 10:22:13;;;;;;;171.75;144.05;;;;;;;;;;5035946;28;20553;-52
2022/06/10 10:24:40;;;;;;;161.27;141.13;;;;;;;;;;5032296;28;20464;-52
2022/06/10 10:27:11;;;;;;;218.13;159.85;;;;;;;;;;5033872;28;20319;-52
2022/06/10 10:29:39;;;;;;;190.25;146.70;;;;;;;;;;5037800;28;20683;-54
2022/06/10 10:32:13;;;;;;;196.75;151.35;;;;;;;;;;5033376;28;20204;-52
2022/06/10 10:34:41;;;;;;;182.15;148.73;;;;;;;;;;5036262;28;20255;-52
2022/06/10 10:37:23;;;;;;;157.30;140.35;;;;;;;;;;5033172;28;20230;-52
2022/06/10 10:39:50;;;;;;;189.85;149.68;;;;;;;;;;5031160;28;20216;-52
2022/06/10 10:42:21;;;;;;;212.38;168.98;;;;;;;;;;5034130;28;20223;-52
2022/06/10 10:44:50;;;;;;;266.50;178.88;;;;;;;;;;5034551;28;20191;-52
2022/06/10 10:47:18;;;;;;;222.25;162.95;;;;;;;;;;5040589;28;20184;-52
2022/06/10 10:49:46;;;;;;;197.90;164.60;;;;;;;;;;5015584;28;20216;-52
2022/06/10 10:52:21;;;;;;;243.70;178.80;;;;;;;;;;5024441;28;20722;-52
2022/06/10 10:54:48;;;;;;;186.35;145.43;;;;;;;;;;5036764;28;20219;-52
2022/06/10 10:57:25;;;;;;;228.75;160.35;;;;;;;;;;5034303;28;20576;-52
2022/06/10 10:59:59;;;;;;;198.55;151.35;;;;;;;;;;5036206;28;20579;-52
2022/06/10 11:02:36;;;;;;;218.23;163.75;;;;;;;;;;5040144;28;20191;-52
2022/06/10 11:05:20;;;;;;;216.25;163.95;;;;;;;;;;5034241;28;20242;-52
2022/06/10 11:07:46;;;;;;;200.27;156.23;;;;;;;;;;5032200;28;20260;-52
2022/06/10 11:10:25;;;;;;;206.65;161.07;;;;;;;;;;5037657;28;20222;-52
2022/06/10 11:12:51;;;;;;;217.45;169.52;;;;;;;;;;5033292;28;20224;-52
2022/06/10 11:15:28;;;;;;;206.50;160.68;;;;;;;;;;5030148;28;20742;-52
2022/06/10 11:17:54;;;;;;;260.90;171.30;;;;;;;;;;5032314;28;20223;-52
2022/06/10 11:20:23;;;;;;;198.38;155.60;;;;;;;;;;5034958;28;20187;-52
2022/06/10 11:22:49;;;;;;;208.90;162.90;;;;;;;;;;5035458;28;20219;-52
2022/06/10 11:25:23;;;;;;;258.55;181.82;;;;;;;;;;5034660;28;20223;-52
2022/06/10 11:27:49;;;;;;;196.30;157.13;;;;;;;;;;5034707;28;20542;-52
2022/06/10 11:30:17;;;;;;;230.82;175.20;;;;;;;;;;5034703;28;20230;-53
2022/06/10 11:32:49;;;;;;;210.65;168.90;;;;;;;;;;5035101;28;20509;-53
2022/06/10 11:35:20;;;;;;;232.07;182.82;;;;;;;;;;5038507;28;20171;-53
2022/06/10 11:37:49;;;;;;;217.05;161.65;;;;;;;;;;5034175;28;20735;-53
2022/06/10 11:40:18;;;;;;;247.45;178.00;;;;;;;;;;5037140;28;20211;-53
2022/06/10 11:42:47;;;;;;;232.80;172.50;;;;;;;;;;5033593;28;20231;-53
2022/06/10 11:45:21;;;;;;;194.40;156.75;;;;;;;;;;5023178;28;20262;-53
2022/06/10 11:47:52;;;;;;;225.07;175.45;;;;;;;;;;5036040;28;20251;-53
2022/06/10 11:50:38;;;;;;;221.18;171.40;;;;;;;;;;5035222;28;20176;-52
2022/06/10 11:53:11;;;;;;;202.73;156.80;;;;;;;;;;5037094;28;20310;-53
2022/06/10 11:55:40;;;;;;;190.95;157.70;;;;;;;;;;5035816;28;20222;-53
2022/06/10 12:00:55;;;;;;;191.25;153.85;;;;;;;;;;5031744;28;20619;-53
2022/06/10 12:03:29;;;;;;;270.08;185.75;;;;;;;;;;5032242;28;20215;-53
2022/06/10 12:06:00;;;;;;;265.42;190.50;;;;;;;;;;5035086;28;20219;-52
2022/06/10 12:08:31;;;;;;;250.07;180.80;;;;;;;;;;5037788;28;20207;-53
2022/06/10 12:11:00;;;;;;;194.30;160.63;;;;;;;;;;5040118;28;20312;-53
2022/06/10 12:13:27;;;;;;;309.15;205.68;;;;;;;;;;5035627;28;20248;-52
2022/06/10 12:15:57;;;;;;;207.13;168.05;;;;;;;;;;5032470;28;20242;-52
2022/06/10 12:18:29;;;;;;;267.42;190.40;;;;;;;;;;5032146;28;20641;-52
2022/06/10 12:21:01;;;;;;;254.90;186.43;;;;;;;;;;5030153;28;20670;-52
2022/06/10 12:23:30;;;;;;;247.23;184.93;;;;;;;;;;5041001;28;20171;-52
2022/06/10 12:25:59;;;;;;;261.25;190.73;;;;;;;;;;5033594;28;20212;-52
2022/06/10 12:28:29;;;;;;;279.08;199.45;;;;;;;;;;5033957;28;20226;-52
2022/06/10 12:31:00;;;;;;;259.27;191.80;;;;;;;;;;5031212;28;20278;-52
2022/06/10 12:33:39;;;;;;;263.50;193.05;;;;;;;;;;5031997;28;20245;-52
2022/06/10 12:36:06;;;;;;;296.75;207.57;;;;;;;;;;5034591;28;20239;-52
2022/06/10 12:38:37;;;;;;;287.30;204.20;;;;;;;;;;5037267;28;20725;-52
2022/06/10 12:41:17;;;;;;;233.68;179.75;;;;;;;;;;5032749;28;20676;-52
2022/06/10 12:43:46;;;;;;;255.30;195.02;;;;;;;;;;5033242;28;20706;-52
2022/06/10 12:46:27;;;;;;;245.48;189.57;;;;;;;;;;5033778;28;20263;-52
2022/06/10 12:48:54;;;;;;;254.57;193.60;;;;;;;;;;5031898;28;20563;-52
2022/06/10 12:51:20;;;;;;;285.23;212.02;;;;;;;;;;5031460;28;20220;-52
2022/06/10 12:53:51;;;;;;;272.90;204.85;;;;;;;;;;5033419;28;20199;-52
2022/06/10 12:56:31;;;;;;;262.23;204.65;;;;;;;;;;5036081;28;20688;-52
2022/06/10 12:58:57;;;;;;;308.67;219.20;;;;;;;;;;5032517;28;20227;-52
2022/06/10 13:01:40;;;;;;;274.23;206.18;;;;;;;;;;5033009;28;20235;-52
2022/06/10 13:04:14;;;;;;;237.05;190.52;;;;;;;;;;5028913;28;20212;-52
2022/06/10 13:06:43;;;;;;;259.73;199.43;;;;;;;;;;5031215;28;20219;-52
2022/06/10 13:09:18;;;;;;;285.55;212.95;;;;;;;;;;5037144;28;20275;-52
2022/06/10 13:12:02;;;;;;;270.73;212.05;;;;;;;;;;5035787;28;20272;-52
2022/06/10 13:14:36;;;;;;;241.43;198.25;;;;;;;;;;5038493;28;20298;-52
2022/06/10 13:17:21;;;;;;;286.88;224.73;;;;;;;;;;5035581;28;20647;-53
2022/06/10 13:19:56;;;;;;;281.30;218.35;;;;;;;;;;5044534;28;20299;-53
2022/06/10 13:22:23;;;;;;;283.38;219.73;;;;;;;;;;5043859;28;20750;-52
2022/06/10 13:24:55;;;;;;;287.30;226.57;;;;;;;;;;5038574;28;20277;-53
2022/06/10 13:27:35;;;;;;;349.73;251.07;;;;;;;;;;5036837;28;20587;-53
2022/06/10 13:30:05;;;;;;;287.88;228.20;;;;;;;;;;5035169;28;20212;-53
2022/06/10 13:32:31;;;;;;;323.20;242.32;;;;;;;;;;5042060;28;20211;-52
2022/06/10 13:35:02;;;;;;;300.42;237.20;;;;;;;;;;5037184;28;20220;-52
2022/06/10 13:37:29;;;;;;;322.98;260.80;;;;;;;;;;5042949;28;20207;-53
2022/06/10 13:39:59;;;;;;;311.85;247.05;;;;;;;;;;5034479;28;20307;-53
2022/06/10 13:42:36;;;;;;;312.63;253.82;;;;;;;;;;5033084;28;20216;-53
2022/06/10 13:45:04;;;;;;;310.77;261.58;;;;;;;;;;5032724;28;20361;-53
2022/06/10 13:47:31;;;;;;;280.90;245.02;;;;;;;;;;5037053;28;20185;-53
2022/06/10 13:50:16;;;;;;;306.15;265.70;;;;;;;;;;5032308;28;20691;-53
2022/06/10 13:53:00;;;;;;;285.00;245.07;;;;;;;;;;5041789;28;20227;-53
2022/06/10 13:55:26;;;;;;;314.65;268.45;;;;;;;;;;5036662;28;20242;-53
2022/06/10 13:58:11;;;;;;;303.67;261.70;;;;;;;;;;5031715;28;20235;-53
2022/06/10 14:00:41;;;;;;;314.25;278.83;;;;;;;;;;5035029;28;20218;-53
2022/06/10 14:03:24;;;;;;;359.73;304.70;;;;;;;;;;5034106;28;20716;-53
2022/06/10 14:06:00;;;;;;;308.10;273.02;;;;;;;;;;5034301;28;20253;-53
2022/06/10 14:08:29;;;;;;;336.48;284.35;;;;;;;;;;5035788;28;20569;-53
2022/06/10 14:10:55;;;;;;;332.17;287.38;;;;;;;;;;5034061;28;20228;-53
2022/06/10 14:13:22;;;;;;;339.17;298.25;;;;;;;;;;5039694;28;20229;-53
2022/06/10 14:15:52;;;;;;;356.40;298.73;;;;;;;;;;5034347;28;20204;-53
2022/06/10 14:18:23;;;;;;;360.02;302.25;;;;;;;;;;5034604;28;20222;-53
2022/06/10 14:20:50;;;;;;;345.17;303.75;;;;;;;;;;5041997;28;20258;-53
2022/06/10 14:23:43;;;;;;;385.15;324.63;;;;;;;;;;5035114;28;20188;-53
2022/06/10 14:26:12;;;;;;;351.35;296.33;;;;;;;;;;5009379;28;20215;-52
2022/06/10 14:28:39;;;;;;;364.50;314.42;;;;;;;;;;5042004;28;20224;-52